Time;durP1;ratioP1;P1;durP2;ratioP2;P2;SDS_P1;SDS_P2;PMS_P1;PMS_P2;Temp;Humidity;BMP_temperature;BMP_pressure;BME280_temperature;BME280_humidity;BME280_pressure;Samples;Min_cycle;Max_cycle;Signal;HPM_P1;HPM_P2
2022/09/24 00:00:10;;;;;;;12.48;7.28;;;;;;;13.04;91.69;100287.38;10418364;28;20483;-68
2022/09/24 00:05:11;;;;;;;16.70;6.80;;;;;;;12.93;91.88;100303.88;10418251;28;20038;-68
2022/09/24 00:10:12;;;;;;;9.07;6.53;;;;;;;12.79;92.64;100298.34;10417454;28;20064;-68
2022/09/24 00:15:13;;;;;;;17.23;6.63;;;;;;;12.39;92.99;100264.97;10417487;28;20175;-68
2022/09/24 00:20:13;;;;;;;10.95;5.85;;;;;;;12.20;93.47;100265.47;10417666;28;20037;-68
2022/09/24 00:30:36;;;;;;;7.03;5.57;;;;;;;12.15;94.24;100286.50;10417586;28;20046;-68
2022/09/24 00:35:40;;;;;;;8.35;5.30;;;;;;;12.49;95.19;100372.09;10415406;28;20045;-68
2022/09/24 00:40:41;;;;;;;11.63;4.78;;;;;;;12.37;95.14;100341.56;10416962;28;20052;-68
2022/09/24 00:45:42;;;;;;;5.70;4.53;;;;;;;12.28;95.04;100330.16;10415537;28;20052;-68
2022/09/24 00:50:42;;;;;;;6.22;4.47;;;;;;;12.55;95.14;100365.22;10416251;28;20033;-68
2022/09/24 00:55:46;;;;;;;7.13;4.68;;;;;;;12.66;95.13;100359.47;10415620;28;20041;-68
2022/09/24 01:00:51;;;;;;;7.88;5.00;;;;;;;12.74;95.20;100323.91;10415688;28;20484;-68
2022/09/24 01:05:52;;;;;;;9.35;5.00;;;;;;;12.50;94.38;100264.53;10416129;28;20045;-68
2022/09/24 01:11:17;;;;;;;11.52;5.38;;;;;;;13.17;96.80;100356.09;10414943;28;20057;-68
2022/09/24 01:16:22;;;;;;;12.90;4.85;;;;;;;13.17;96.17;100346.25;10449216;28;20049;-68
2022/09/24 01:21:34;;;;;;;7.35;5.00;;;;;;;13.17;94.92;100337.44;10424058;28;20044;-68
2022/09/24 01:27:13;;;;;;;6.45;4.93;;;;;;;13.27;96.67;100329.16;10455485;28;20052;-68
2022/09/24 01:32:17;;;;;;;10.32;4.82;;;;;;;13.26;94.25;100314.19;10448254;28;20050;-68
2022/09/24 01:37:22;;;;;;;6.68;5.30;;;;;;;13.30;94.91;100334.97;10413802;28;20455;-68
2022/09/24 01:42:28;;;;;;;7.93;5.07;;;;;;;13.39;95.00;100357.84;10413711;28;20068;-69
2022/09/24 01:47:33;;;;;;;7.80;4.72;;;;;;;13.37;95.50;100372.38;10414166;28;20053;-68
2022/09/24 01:52:41;;;;;;;5.70;4.32;;;;;;;13.55;95.08;100369.31;10413590;28;20037;-68
2022/09/24 01:57:47;;;;;;;13.65;5.55;;;;;;;13.61;94.88;100363.25;10445110;28;20116;-68
2022/09/24 02:03:15;;;;;;;9.73;4.90;;;;;;;13.68;95.18;100374.84;10453911;28;20037;-68
2022/09/24 02:08:28;;;;;;;16.88;4.97;;;;;;;13.53;95.92;100337.50;10454538;28;20048;-68
2022/09/24 02:13:39;;;;;;;9.70;5.28;;;;;;;13.35;94.75;100316.56;10454811;28;20068;-67
2022/09/24 02:18:43;;;;;;;9.85;4.90;;;;;;;13.50;95.22;100347.72;10453875;28;20532;-68
2022/09/24 02:23:56;;;;;;;6.40;4.68;;;;;;;13.75;95.52;100386.41;10452461;28;20040;-68
2022/09/24 02:28:58;;;;;;;18.75;5.90;;;;;;;13.79;95.32;100377.03;10453627;28;20051;-68
2022/09/24 02:34:22;;;;;;;14.07;4.88;;;;;;;13.76;95.68;100358.72;10452830;28;20385;-69
2022/09/24 02:39:22;;;;;;;7.60;4.68;;;;;;;13.85;95.27;100364.75;10453502;28;20090;-68
2022/09/24 02:44:23;;;;;;;7.90;4.90;;;;;;;13.41;95.21;100294.47;10454364;28;20102;-68
2022/09/24 02:49:24;;;;;;;4.95;4.43;;;;;;;13.84;95.45;100355.09;10453032;28;20394;-68
2022/09/24 02:54:25;;;;;;;8.52;4.95;;;;;;;13.85;95.42;100344.25;10456902;28;20036;-68
2022/09/24 02:59:26;;;;;;;23.45;5.38;;;;;;;13.79;95.39;100349.47;10461665;28;20452;-68
2022/09/24 03:04:28;;;;;;;26.50;5.60;;;;;;;13.89;95.91;100366.03;10460640;28;20036;-68
2022/09/24 03:09:29;;;;;;;10.75;5.18;;;;;;;13.94;96.52;100411.72;10460828;28;20558;-69
2022/09/24 03:14:29;;;;;;;12.18;5.13;;;;;;;13.58;96.23;100332.44;10461361;28;20119;-68
2022/09/24 03:19:30;;;;;;;26.38;6.07;;;;;;;13.90;96.15;100362.34;10459803;28;20132;-68
2022/09/24 03:24:31;;;;;;;32.28;6.45;;;;;;;13.50;96.72;100299.69;10459935;28;20037;-68
2022/09/24 03:34:51;;;;;;;9.13;4.72;;;;;;;14.10;96.12;100378.59;10460389;28;20140;-68
2022/09/24 03:39:52;;;;;;;10.35;5.10;;;;;;;13.72;95.64;100295.19;10460636;28;20131;-68
2022/09/24 03:44:53;;;;;;;16.02;5.65;;;;;;;13.98;95.82;100332.84;10460548;28;20052;-68
2022/09/24 03:49:54;;;;;;;17.88;5.95;;;;;;;14.18;96.35;100353.56;10459090;28;20102;-68
2022/09/24 03:54:55;;;;;;;18.40;6.53;;;;;;;14.13;96.51;100346.16;10459158;28;20086;-68
2022/09/24 03:59:57;;;;;;;25.65;5.93;;;;;;;14.15;96.47;100350.28;10459265;28;20450;-68
2022/09/24 04:04:58;;;;;;;20.83;6.82;;;;;;;14.33;96.45;100362.38;10457510;28;20179;-68
2022/09/24 04:09:58;;;;;;;11.68;6.05;;;;;;;13.85;95.91;100287.31;10458535;28;20128;-68
2022/09/24 04:15:01;;;;;;;7.07;5.00;;;;;;;14.36;95.92;100362.00;10445347;28;20122;-69
2022/09/24 04:20:02;;;;;;;8.85;5.63;;;;;;;14.45;96.00;100355.50;10420201;28;20091;-68
2022/09/24 04:25:04;;;;;;;18.55;5.75;;;;;;;13.81;96.39;100222.78;10417682;28;20045;-68
2022/09/24 04:30:05;;;;;;;29.42;6.68;;;;;;;14.32;96.33;100301.91;10416000;28;20120;-68
2022/09/24 04:35:07;;;;;;;8.00;5.55;;;;;;;14.13;96.32;100277.50;10436551;28;20519;-68
2022/09/24 04:40:11;;;;;;;8.13;5.20;;;;;;;14.63;95.69;100341.69;10453519;28;20512;-68
2022/09/24 04:45:19;;;;;;;9.18;6.70;;;;;;;14.67;94.85;100344.78;10456973;28;20041;-68
2022/09/24 04:50:19;;;;;;;9.13;6.18;;;;;;;14.51;94.57;100309.31;10451529;28;20530;-68
2022/09/24 04:55:22;;;;;;;11.52;6.70;;;;;;;14.60;94.30;100313.47;10415875;28;20171;-68
2022/09/24 05:00:23;;;;;;;17.95;6.07;;;;;;;14.50;94.21;100286.22;10415222;28;20068;-68
2022/09/24 05:05:25;;;;;;;13.05;6.88;;;;;;;14.64;94.19;100297.03;10416071;28;20034;-68
2022/09/24 05:10:27;;;;;;;14.88;7.65;;;;;;;14.81;94.31;100323.28;10414293;28;20063;-68
2022/09/24 05:15:28;;;;;;;22.13;7.90;;;;;;;14.22;94.53;100227.44;10443014;28;20063;-68
2022/09/24 05:20:28;;;;;;;41.78;8.00;;;;;;;14.55;94.36;100265.13;10455496;28;20041;-68
2022/09/24 05:25:29;;;;;;;22.58;6.93;;;;;;;14.55;93.56;100267.78;10456023;28;20051;-69
2022/09/24 05:30:30;;;;;;;12.48;6.63;;;;;;;14.45;92.74;100242.38;10438356;28;20078;-68
2022/09/24 05:35:31;;;;;;;22.73;7.38;;;;;;;14.66;92.09;100249.53;10492091;28;20036;-68
2022/09/24 05:40:47;;;;;;;14.55;6.13;;;;;;;15.00;91.18;100295.00;10429684;28;20063;-68
2022/09/24 05:45:51;;;;;;;6.68;5.13;;;;;;;15.39;89.79;100352.41;10433742;28;20583;-68
2022/09/24 05:50:54;;;;;;;32.33;6.40;;;;;;;15.42;89.30;100351.19;10434526;28;20378;-68
2022/09/24 05:55:55;;;;;;;7.80;4.05;;;;;;;15.55;87.73;100361.09;10429881;28;20079;-67
2022/09/24 06:00:58;;;;;;;8.73;3.67;;;;;;;15.19;84.75;100303.31;10413476;28;20464;-68
2022/09/24 06:06:02;;;;;;;9.15;3.50;;;;;;;15.72;85.02;100381.19;10446331;28;20052;-68
2022/09/24 06:11:07;;;;;;;10.43;5.32;;;;;;;15.62;84.80;100351.28;10428016;28;20509;-68
2022/09/24 06:16:11;;;;;;;8.32;5.97;;;;;;;15.70;84.55;100393.94;10438105;28;20041;-67
2022/09/24 06:21:13;;;;;;;;;;;;;;;15.86;83.64;100393.59;10436416;28;20508;-67
2022/09/24 06:26:14;;;;;;;6.50;4.30;;;;;;;15.68;84.27;100382.63;10443190;28;19928;-67
2022/09/24 06:31:15;;;;;;;6.45;3.97;;;;;;;15.80;81.98;100389.06;10452038;28;20045;-68
2022/09/24 06:36:15;;;;;;;14.20;4.13;;;;;;;15.70;80.66;100343.91;10461553;28;20040;-67
2022/09/24 06:41:17;;;;;;;7.35;2.88;;;;;;;15.59;78.56;100333.75;10462777;28;20119;-70
2022/09/24 06:46:17;;;;;;;5.53;2.97;;;;;;;15.88;76.16;100370.09;10456387;28;20049;-67
2022/09/24 06:51:18;;;;;;;8.00;3.78;;;;;;;16.04;76.05;100376.97;10461110;28;20045;-67
2022/09/24 06:56:19;;;;;;;7.72;2.70;;;;;;;15.26;75.57;100215.88;10446615;28;20055;-68
2022/09/24 07:01:20;;;;;;;10.02;3.03;;;;;;;15.97;74.39;100314.47;10461395;28;20097;-68
2022/09/24 07:06:20;;;;;;;8.75;2.83;;;;;;;16.35;73.59;100356.78;10460777;28;20041;-68
2022/09/24 07:11:22;;;;;;;4.57;2.65;;;;;;;14.96;72.94;100122.56;10436452;28;20061;-68
2022/09/24 07:19:38;;;;;;;19.67;4.13;;;;;;;16.30;73.03;100319.03;10531412;27;21002;-69
2022/09/24 07:24:39;;;;;;;11.30;3.60;;;;;;;16.43;73.06;100316.38;10531665;28;20048;-69
2022/09/24 07:29:40;;;;;;;7.22;3.83;;;;;;;16.48;73.01;100303.16;10531208;28;20033;-68
2022/09/24 07:34:40;;;;;;;9.10;4.30;;;;;;;16.01;72.45;100223.81;10501911;28;20128;-67
2022/09/24 07:39:42;;;;;;;8.77;3.75;;;;;;;16.58;72.39;100308.13;10447205;28;20124;-67
2022/09/24 07:44:45;;;;;;;4.60;2.90;;;;;;;16.65;70.86;100319.66;10459672;28;20045;-69
2022/09/24 07:49:46;;;;;;;4.93;3.30;;;;;;;16.73;71.16;100324.81;10406417;28;20046;-69
2022/09/24 07:54:47;;;;;;;6.70;3.22;;;;;;;16.65;70.71;100325.00;10400185;28;20284;-69
2022/09/24 07:59:50;;;;;;;3.72;2.45;;;;;;;15.72;70.74;100197.22;10400730;28;20036;-69
2022/09/24 08:04:51;;;;;;;5.93;3.00;;;;;;;16.39;70.85;100307.94;10402427;28;20041;-68
2022/09/24 08:09:52;;;;;;;5.45;3.05;;;;;;;15.83;70.73;100227.94;10400600;28;20045;-69
2022/09/24 08:14:53;;;;;;;6.90;3.45;;;;;;;16.40;70.74;100327.53;10400033;28;20509;-69
2022/09/24 08:19:55;;;;;;;9.05;2.90;;;;;;;16.38;70.20;100318.84;10401629;28;20049;-69
2022/09/24 08:24:56;;;;;;;4.38;3.10;;;;;;;16.31;69.94;100292.06;10401308;28;20460;-67
2022/09/24 08:29:59;;;;;;;6.90;2.97;;;;;;;16.09;69.49;100283.38;10378760;28;20057;-70
2022/09/24 08:35:00;;;;;;;6.72;2.70;;;;;;;16.25;69.63;100311.63;10369337;28;20038;-68
2022/09/24 08:40:02;;;;;;;6.47;2.83;;;;;;;15.68;70.46;100236.16;10374225;28;20060;-70
2022/09/24 08:50:56;;;;;;;10.93;3.40;;;;;;;15.69;72.10;100269.94;10381922;28;20103;-71
2022/09/24 08:56:01;;;;;;;4.85;3.50;;;;;;;15.51;72.70;100257.09;10434166;28;20045;-68
2022/09/24 09:01:09;;;;;;;3.78;3.00;;;;;;;15.78;72.71;100328.69;10431699;28;20033;-69
2022/09/24 09:06:25;;;;;;;5.65;3.17;;;;;;;15.16;73.64;100242.16;10466010;28;20040;-69
2022/09/24 09:11:32;;;;;;;4.80;2.88;;;;;;;15.66;75.03;100347.97;10430039;28;20030;-70
2022/09/24 09:16:44;;;;;;;8.90;4.50;;;;;;;14.82;76.65;100198.41;10432952;28;20057;-69
2022/09/24 09:21:54;;;;;;;9.85;4.75;;;;;;;15.41;76.89;100323.59;10432079;28;20155;-69
2022/09/24 09:26:56;;;;;;;5.05;4.13;;;;;;;14.97;76.73;100268.63;10425356;28;20041;-69
2022/09/24 09:32:24;;;;;;;8.88;4.53;;;;;;;15.46;79.90;100377.34;10414991;28;20562;-69
2022/09/24 09:37:43;;;;;;;19.52;12.50;;;;;;;15.32;81.01;100386.34;10415376;28;20045;-68
2022/09/24 09:42:44;;;;;;;65.85;31.15;;;;;;;14.98;80.77;100361.22;10414379;28;20041;-70
2022/09/24 09:48:07;;;;;;;65.82;33.33;;;;;;;14.96;86.82;100362.47;10415374;28;20044;-69
2022/09/24 09:53:22;;;;;;;27.45;15.25;;;;;;;14.79;87.90;100389.50;10415205;28;20526;-69
2022/09/24 09:58:46;;;;;;;18.30;9.75;;;;;;;14.38;90.31;100334.03;10448057;28;20049;-69
2022/09/24 10:03:49;;;;;;;;;;;;;;;14.78;87.52;100406.59;10415748;28;20037;-69
2022/09/24 10:08:50;;;;;;;7.32;4.65;;;;;;;14.48;87.34;100399.69;10415173;28;20360;-69
2022/09/24 10:14:04;;;;;;;7.55;5.07;;;;;;;14.53;92.81;100411.50;10415015;28;20037;-70
2022/09/24 10:19:20;;;;;;;17.30;8.75;;;;;;;14.24;93.58;100395.56;10415091;28;20053;-70
2022/09/24 10:24:24;;;;;;;9.18;5.55;;;;;;;14.23;90.81;100396.59;10394359;28;20041;-70
2022/09/24 10:34:58;;;;;;;19.25;8.57;;;;;;;13.91;93.79;100398.75;10372212;28;20045;-70
2022/09/24 10:40:01;;;;;;;8.02;4.43;;;;;;;13.84;94.34;100412.00;10334702;28;20072;-68
2022/09/24 10:45:03;;;;;;;9.90;4.23;;;;;;;13.85;94.52;100415.47;10369062;28;20050;-70
2022/09/24 10:50:29;;;;;;;5.13;2.80;;;;;;;13.76;95.09;100437.97;10372728;28;20065;-70
2022/09/24 10:55:45;;;;;;;4.90;3.25;;;;;;;13.45;98.81;100421.16;10371499;28;20379;-70
2022/09/24 11:01:03;;;;;;;7.47;3.78;;;;;;;13.22;100.00;100373.22;10371602;28;20062;-70
2022/09/24 11:06:29;;;;;;;6.47;3.38;;;;;;;13.16;100.00;100373.97;10371741;28;20401;-72
2022/09/24 11:11:42;;;;;;;5.65;3.20;;;;;;;12.89;99.00;100391.41;10371261;28;20124;-69
2022/09/24 11:17:17;;;;;;;4.75;2.95;;;;;;;13.29;100.00;100474.72;10372228;28;20616;-71
2022/09/24 11:22:36;;;;;;;7.65;3.75;;;;;;;13.06;100.00;100448.06;10369586;28;20108;-72
2022/09/24 11:27:40;;;;;;;4.50;3.08;;;;;;;13.12;100.00;100468.66;10396053;28;20053;-71
2022/09/24 11:33:00;;;;;;;8.15;3.45;;;;;;;13.09;100.00;100478.88;10339272;28;20397;-71
2022/09/24 11:38:03;;;;;;;6.60;3.20;;;;;;;13.06;100.00;100480.06;10371960;28;20129;-71
2022/09/24 11:43:45;;;;;;;7.43;3.30;;;;;;;13.13;100.00;100472.16;10371610;28;20040;-71
2022/09/24 11:49:02;;;;;;;6.15;2.90;;;;;;;13.05;100.00;100461.59;10370498;28;20141;-71
2022/09/24 11:54:18;;;;;;;9.25;3.50;;;;;;;13.02;100.00;100449.44;10371320;28;20080;-71
2022/09/24 11:59:50;;;;;;;6.40;3.50;;;;;;;13.14;100.00;100463.16;10369516;28;20042;-71
2022/09/24 12:05:12;;;;;;;5.78;3.10;;;;;;;12.92;100.00;100423.03;10355415;28;20054;-71
2022/09/24 12:10:44;;;;;;;5.90;3.17;;;;;;;13.36;100.00;100488.16;10394491;28;20049;-71
2022/09/24 12:15:55;;;;;;;6.45;3.42;;;;;;;13.33;100.00;100486.66;10371182;28;20057;-71
2022/09/24 12:21:00;;;;;;;7.28;3.45;;;;;;;13.23;100.00;100457.56;10353662;28;20100;-72
2022/09/24 12:26:06;;;;;;;24.08;12.55;;;;;;;12.94;100.00;100386.34;10356640;28;20037;-72
2022/09/24 12:36:59;;;;;;;9.60;4.30;;;;;;;13.43;100.00;100465.03;10372598;28;20049;-72
2022/09/24 12:42:09;;;;;;;5.40;3.47;;;;;;;13.29;100.00;100426.69;10417988;28;20509;-72
2022/09/24 12:47:23;;;;;;;11.75;4.20;;;;;;;13.16;100.00;100403.28;10415972;28;20045;-74
2022/09/24 12:52:34;;;;;;;8.27;4.18;;;;;;;13.01;100.00;100386.44;10416947;28;20049;-71
2022/09/24 12:57:40;;;;;;;8.48;4.35;;;;;;;12.99;100.00;100399.97;10415312;28;20572;-72
2022/09/24 13:02:47;;;;;;;10.60;4.45;;;;;;;13.03;100.00;100408.41;10414087;28;20412;-72
2022/09/24 13:07:57;;;;;;;7.78;3.92;;;;;;;12.88;100.00;100389.72;10410851;28;20052;-71
2022/09/24 13:12:59;;;;;;;7.95;3.13;;;;;;;13.14;100.00;100431.16;10399665;28;20108;-71
2022/09/24 13:18:17;;;;;;;7.07;3.30;;;;;;;12.60;100.00;100316.72;10374494;28;20417;-71
2022/09/24 13:23:20;;;;;;;6.13;3.67;;;;;;;13.15;100.00;100401.63;10374791;28;20046;-71
2022/09/24 13:28:36;;;;;;;6.63;3.83;;;;;;;13.01;100.00;100362.44;10376066;28;20053;-72
2022/09/24 13:33:46;;;;;;;6.38;3.03;;;;;;;12.83;100.00;100352.13;10376141;28;20087;-71
2022/09/24 13:38:59;;;;;;;5.10;3.38;;;;;;;12.89;100.00;100380.75;10375026;28;20092;-70
2022/09/24 13:44:06;;;;;;;8.02;3.25;;;;;;;12.75;100.00;100353.03;10374549;28;20104;-68
2022/09/24 13:49:17;;;;;;;7.97;3.42;;;;;;;12.65;100.00;100368.44;10374442;28;20045;-69
2022/09/24 13:54:23;;;;;;;5.85;3.53;;;;;;;12.56;100.00;100399.72;10374737;28;20037;-69
2022/09/24 13:59:24;;;;;;;8.65;3.63;;;;;;;12.23;100.00;100351.16;10374349;28;20077;-70
2022/09/24 14:04:25;;;;;;;5.35;3.83;;;;;;;12.45;100.00;100391.31;10374494;28;20046;-69
2022/09/24 14:09:32;;;;;;;5.00;3.30;;;;;;;12.57;100.00;100444.00;10374916;28;20042;-69
2022/09/24 14:14:34;;;;;;;10.68;5.70;;;;;;;12.59;100.00;100490.94;10374121;28;20048;-68
2022/09/24 14:19:35;;;;;;;11.70;3.60;;;;;;;12.45;100.00;100496.03;10404650;28;20490;-69
2022/09/24 14:24:50;;;;;;;12.18;4.25;;;;;;;12.29;100.00;100442.84;10413965;28;20080;-65
2022/09/24 14:29:59;;;;;;;12.27;5.10;;;;;;;12.72;100.00;100484.03;10413178;28;20409;-69
2022/09/24 14:35:06;;;;;;;14.60;4.13;;;;;;;12.70;100.00;100477.22;10412870;28;20038;-67
2022/09/24 14:40:19;;;;;;;6.60;3.75;;;;;;;12.83;100.00;100495.25;10413854;28;20041;-67
2022/09/24 14:45:33;;;;;;;6.25;3.90;;;;;;;12.70;100.00;100507.34;10413598;28;20053;-67
2022/09/24 14:50:39;;;;;;;6.80;4.17;;;;;;;12.73;100.00;100519.50;10412501;28;20046;-72
2022/09/24 14:55:42;;;;;;;12.27;6.38;;;;;;;12.34;100.00;100483.94;10413273;28;20539;-69
2022/09/24 15:00:48;;;;;;;24.35;15.95;;;;;;;12.24;100.00;100451.38;10411910;28;20052;-69
2022/09/24 15:05:49;;;;;;;33.15;22.98;;;;;;;12.45;100.00;100474.72;10412510;28;20052;-69
2022/09/24 15:10:52;;;;;;;46.95;31.92;;;;;;;12.36;100.00;100443.00;10412682;28;20409;-70
2022/09/24 15:16:06;;;;;;;65.40;46.33;;;;;;;12.56;100.00;100470.81;10412948;28;20061;-71
2022/09/24 15:21:09;;;;;;;66.00;45.20;;;;;;;12.45;100.00;100453.41;10413294;28;20063;-69
2022/09/24 15:26:10;;;;;;;56.07;39.20;;;;;;;12.49;100.00;100441.38;10411895;28;20053;-69
2022/09/24 15:31:11;;;;;;;45.33;33.85;;;;;;;12.26;100.00;100400.59;10411934;28;20041;-69
2022/09/24 15:36:13;;;;;;;26.73;20.65;;;;;;;12.62;100.00;100459.44;10412672;28;20042;-69
2022/09/24 15:41:14;;;;;;;20.65;15.60;;;;;;;12.08;100.00;100361.78;10420274;28;20069;-70
2022/09/24 15:46:15;;;;;;;14.18;11.52;;;;;;;12.45;100.00;100452.59;10410125;28;20490;-69
2022/09/24 15:51:19;;;;;;;17.67;12.10;;;;;;;12.09;100.00;100403.38;10418279;28;20076;-69
2022/09/24 15:56:20;;;;;;;12.25;9.50;;;;;;;12.28;100.00;100410.06;10419309;28;20038;-71
2022/09/24 16:01:21;;;;;;;13.88;8.80;;;;;;;12.12;100.00;100386.22;10417506;28;20048;-70
2022/09/24 16:06:22;;;;;;;10.07;7.47;;;;;;;11.15;100.00;100240.22;10413845;28;20041;-71
2022/09/24 16:11:23;;;;;;;9.48;6.88;;;;;;;12.48;100.00;100463.72;10418452;28;20412;-71
2022/09/24 16:16:24;;;;;;;8.95;5.97;;;;;;;12.58;100.00;100471.47;10419398;28;20059;-71
2022/09/24 16:21:25;;;;;;;8.48;5.72;;;;;;;12.36;100.00;100435.00;10419148;28;20576;-71
2022/09/24 16:26:26;;;;;;;7.38;5.55;;;;;;;12.54;100.00;100464.84;10415151;28;20037;-71
2022/09/24 16:31:26;;;;;;;8.75;5.65;;;;;;;12.50;100.00;100466.19;10417303;28;20033;-68
2022/09/24 16:36:27;;;;;;;9.80;4.68;;;;;;;12.18;100.00;100421.97;10417305;28;20044;-69
2022/09/24 16:41:33;;;;;;;8.18;5.10;;;;;;;12.37;100.00;100479.28;10417625;28;20447;-69
2022/09/24 16:46:33;;;;;;;6.38;4.97;;;;;;;12.53;100.00;100509.31;10415098;28;20045;-69
2022/09/24 16:51:34;;;;;;;6.50;5.28;;;;;;;12.06;100.00;100438.34;10405717;28;20050;-69
2022/09/24 16:56:36;;;;;;;7.95;5.22;;;;;;;12.56;100.00;100518.75;10415124;28;20397;-70
2022/09/24 17:01:38;;;;;;;9.45;5.30;;;;;;;12.30;100.00;100479.16;10413741;28;20420;-69
2022/09/24 17:06:39;;;;;;;7.40;4.32;;;;;;;12.50;100.00;100492.81;10414212;28;20489;-68
2022/09/24 17:11:41;;;;;;;7.07;4.65;;;;;;;12.46;100.00;100476.38;10416459;28;20037;-70
2022/09/24 17:16:42;;;;;;;7.38;4.90;;;;;;;11.95;100.00;100390.81;10416826;28;20055;-70
2022/09/24 17:21:49;;;;;;;6.93;4.75;;;;;;;12.39;100.00;100470.09;10416390;28;20581;-70
2022/09/24 17:26:49;;;;;;;8.80;5.20;;;;;;;12.30;100.00;100466.66;10416469;28;20521;-71
2022/09/24 17:31:50;;;;;;;7.25;5.50;;;;;;;12.40;100.00;100473.59;10415106;28;20049;-71
2022/09/24 17:36:51;;;;;;;7.10;5.57;;;;;;;12.31;100.00;100500.28;10416777;28;20413;-71
2022/09/24 17:41:52;;;;;;;8.45;5.10;;;;;;;12.17;100.00;100474.38;10415006;28;20037;-71
2022/09/24 17:46:52;;;;;;;7.20;5.68;;;;;;;12.29;100.00;100501.44;10415222;28;20140;-71
2022/09/24 17:51:53;;;;;;;8.20;6.30;;;;;;;12.28;100.00;100487.31;10408574;28;20123;-71
2022/09/24 17:56:54;;;;;;;7.80;5.95;;;;;;;12.20;100.00;100479.34;10434183;28;20042;-71
2022/09/24 18:01:55;;;;;;;10.50;6.32;;;;;;;11.84;100.00;100431.09;10429184;28;20523;-73
2022/09/24 18:06:56;;;;;;;8.20;5.90;;;;;;;11.99;100.00;100452.50;10425860;28;20432;-71
2022/09/24 18:11:57;;;;;;;7.07;6.03;;;;;;;12.27;100.00;100493.66;10427836;28;20034;-72
2022/09/24 18:16:59;;;;;;;12.18;6.20;;;;;;;12.21;100.00;100504.19;10426043;28;20053;-72
2022/09/24 18:21:59;;;;;;;11.77;7.03;;;;;;;10.72;100.00;100263.69;10431558;28;20473;-71
2022/09/24 18:27:00;;;;;;;9.23;6.97;;;;;;;12.15;100.00;100499.56;10413801;28;20076;-70
2022/09/24 18:32:01;;;;;;;10.52;6.78;;;;;;;10.67;100.00;100259.88;10410457;28;20045;-72
2022/09/24 18:37:02;;;;;;;10.70;7.13;;;;;;;11.66;100.00;100448.13;10407068;28;20136;-71
2022/09/24 18:42:03;;;;;;;10.57;7.55;;;;;;;11.69;100.00;100451.47;10408989;28;20107;-71
2022/09/24 18:47:04;;;;;;;12.57;7.78;;;;;;;11.60;100.00;100451.47;10413612;28;20158;-71
2022/09/24 18:52:04;;;;;;;10.02;7.60;;;;;;;11.66;100.00;100453.47;10417899;28;20049;-73
2022/09/24 18:57:05;;;;;;;10.90;7.45;;;;;;;11.73;100.00;100485.56;10427190;28;20037;-71
2022/09/24 19:02:06;;;;;;;13.48;8.52;;;;;;;11.65;100.00;100493.56;10408222;28;20516;-70
2022/09/24 19:07:07;;;;;;;10.70;7.03;;;;;;;11.47;100.00;100480.47;10417790;28;20080;-71
2022/09/24 19:12:08;;;;;;;12.52;7.22;;;;;;;10.96;100.00;100419.59;10411319;28;20076;-71
2022/09/24 19:17:09;;;;;;;12.25;7.22;;;;;;;11.24;100.00;100496.31;10412692;28;20088;-71
2022/09/24 19:22:10;;;;;;;11.98;7.05;;;;;;;11.00;100.00;100470.56;10409629;28;20041;-70
2022/09/24 19:27:11;;;;;;;14.13;7.57;;;;;;;10.12;100.00;100346.38;10412870;28;20547;-70
2022/09/24 19:32:11;;;;;;;10.25;8.18;;;;;;;10.70;100.00;100440.19;10413599;28;20037;-70
2022/09/24 19:37:12;;;;;;;12.93;7.80;;;;;;;10.30;100.00;100402.00;10413869;28;20173;-70
2022/09/24 19:42:14;;;;;;;19.95;10.30;;;;;;;9.78;100.00;100338.53;10444848;28;20045;-70
2022/09/24 19:47:14;;;;;;;16.17;10.73;;;;;;;10.74;100.00;100498.16;10411456;28;20049;-70
2022/09/24 19:52:15;;;;;;;19.75;11.55;;;;;;;9.71;100.00;100329.56;10422944;28;20041;-70
2022/09/24 19:57:19;;;;;;;13.55;9.65;;;;;;;10.84;100.00;100511.28;10435197;28;20044;-70
2022/09/24 20:02:20;;;;;;;11.25;9.30;;;;;;;10.60;100.00;100466.94;10412526;28;20045;-70
2022/09/24 20:07:21;;;;;;;16.92;11.60;;;;;;;10.74;100.00;100503.47;10411889;28;20049;-70
2022/09/24 20:12:21;;;;;;;16.30;11.88;;;;;;;10.68;100.00;100495.34;10412141;28;20037;-70
2022/09/24 20:17:23;;;;;;;20.77;10.30;;;;;;;9.90;100.00;100392.97;10412042;28;20062;-70
2022/09/24 20:22:25;;;;;;;21.48;10.40;;;;;;;9.92;100.00;100404.22;10411398;28;20413;-70
2022/09/24 20:32:46;;;;;;;17.70;11.50;;;;;;;10.57;100.00;100500.97;10419030;28;20049;-71
2022/09/24 20:37:47;;;;;;;16.75;10.90;;;;;;;10.25;100.00;100452.09;10417930;28;20037;-70
2022/09/24 20:42:48;;;;;;;16.25;12.40;;;;;;;10.38;100.00;100456.94;10418276;28;20037;-70
2022/09/24 20:47:49;;;;;;;22.55;13.48;;;;;;;10.02;100.00;100385.50;10418060;28;20041;-70
2022/09/24 20:52:50;;;;;;;16.63;13.15;;;;;;;10.76;100.00;100497.16;10418473;28;20045;-70
2022/09/24 20:57:51;;;;;;;15.52;13.15;;;;;;;10.82;100.00;100510.59;10419050;28;20048;-70
2022/09/24 21:02:51;;;;;;;21.27;14.02;;;;;;;10.83;100.00;100509.63;10417865;28;20037;-70
2022/09/24 21:07:53;;;;;;;16.05;13.77;;;;;;;10.89;100.00;100522.25;10417794;28;20052;-70
2022/09/24 21:12:55;;;;;;;20.92;14.20;;;;;;;10.84;100.00;100510.47;10416977;28;20033;-71
2022/09/24 21:17:56;;;;;;;18.15;15.27;;;;;;;10.90;100.00;100523.09;10417768;28;20057;-70
2022/09/24 21:22:59;;;;;;;17.70;14.65;;;;;;;10.81;100.00;100519.59;10418390;28;20045;-70
2022/09/24 21:28:01;;;;;;;16.77;14.98;;;;;;;10.81;100.00;100537.38;10416971;28;20045;-70
2022/09/24 21:33:02;;;;;;;15.07;13.15;;;;;;;10.69;100.00;100534.19;10417443;28;20400;-71
2022/09/24 21:38:02;;;;;;;20.75;15.65;;;;;;;10.84;100.00;100583.03;10416833;28;20132;-71
2022/09/24 21:43:05;;;;;;;20.42;15.90;;;;;;;10.82;100.00;100586.84;10416312;28;20052;-70
2022/09/24 21:48:07;;;;;;;18.08;16.17;;;;;;;10.87;100.00;100585.38;10416432;28;20508;-70
2022/09/24 21:53:08;;;;;;;21.17;16.42;;;;;;;10.80;100.00;100584.38;10416126;28;20041;-70
2022/09/24 21:58:09;;;;;;;19.70;17.05;;;;;;;9.95;100.00;100441.06;10416502;28;20048;-70
2022/09/24 22:03:12;;;;;;;19.42;17.02;;;;;;;10.78;100.00;100570.41;10415989;28;20044;-70
2022/09/24 22:08:15;;;;;;;18.08;14.32;;;;;;;10.82;100.00;100593.00;10415433;28;20412;-70
2022/09/24 22:13:16;;;;;;;17.20;14.82;;;;;;;10.85;100.00;100591.84;10415415;28;20127;-70
2022/09/24 22:18:17;;;;;;;25.27;15.98;;;;;;;10.82;100.00;100594.81;10415481;28;20053;-70
2022/09/24 22:23:18;;;;;;;18.45;16.42;;;;;;;10.79;100.00;100603.94;10414949;28;20060;-70
2022/09/24 22:28:23;;;;;;;20.55;17.58;;;;;;;10.38;100.00;100529.50;10414934;28;20124;-70
2022/09/24 22:38:44;;;;;;;18.70;16.70;;;;;;;10.60;100.00;100580.34;10413567;28;20041;-71
2022/09/24 22:43:45;;;;;;;19.00;16.10;;;;;;;10.77;100.00;100608.63;10414316;28;20064;-70
2022/09/24 22:48:49;;;;;;;18.00;15.07;;;;;;;10.48;100.00;100577.16;10413336;28;20037;-71
2022/09/24 22:53:50;;;;;;;19.05;13.48;;;;;;;10.62;100.00;100596.94;10414671;28;20037;-71
2022/09/24 22:58:54;;;;;;;17.23;12.68;;;;;;;10.68;100.00;100617.56;10412194;28;20041;-71
2022/09/24 23:03:55;;;;;;;13.18;11.60;;;;;;;10.54;100.00;100599.59;10413016;28;20037;-70
2022/09/24 23:08:56;;;;;;;13.25;10.45;;;;;;;10.61;100.00;100617.34;10412957;28;20048;-71
2022/09/24 23:14:03;;;;;;;14.05;10.13;;;;;;;10.43;100.00;100577.63;10412274;28;20033;-71
2022/09/24 23:19:07;;;;;;;14.02;10.15;;;;;;;10.54;100.00;100588.97;10412690;28;20057;-71
2022/09/24 23:24:16;;;;;;;9.80;8.32;;;;;;;10.62;100.00;100588.97;10412819;28;20046;-71
2022/09/24 23:29:17;;;;;;;10.02;7.88;;;;;;;10.58;100.00;100575.19;10413497;28;20131;-70
2022/09/24 23:34:19;;;;;;;10.13;7.68;;;;;;;10.55;100.00;100594.09;10412379;28;20124;-71
2022/09/24 23:39:20;;;;;;;13.73;8.73;;;;;;;10.11;100.00;100525.22;10413020;28;20091;-71